Time;durP1;ratioP1;P1;durP2;ratioP2;P2;SDS_P1;SDS_P2;PMS_P1;PMS_P2;Temp;Humidity;BMP_temperature;BMP_pressure;BME280_temperature;BME280_humidity;BME280_pressure;Samples;Min_cycle;Max_cycle;Signal;HPM_P1;HPM_P2
2023/07/16 00:02:07;;;;;;;2.60;2.13;;;19.60;99.90;;;;;;4995827;28;20579;-58
2023/07/16 00:04:35;;;;;;;3.40;2.60;;;19.60;99.90;;;;;;4995751;28;20489;-57
2023/07/16 00:07:06;;;;;;;3.27;2.70;;;19.60;99.90;;;;;;4998028;28;20994;-57
2023/07/16 00:09:34;;;;;;;3.27;2.40;;;19.60;99.90;;;;;;4997985;28;20479;-57
2023/07/16 00:12:02;;;;;;;2.90;2.70;;;19.60;99.90;;;;;;4999119;28;20489;-57
2023/07/16 00:14:30;;;;;;;2.50;2.13;;;19.50;99.90;;;;;;5000966;28;20499;-58
2023/07/16 00:16:59;;;;;;;2.60;2.40;;;19.40;99.90;;;;;;4998683;28;20552;-58
2023/07/16 00:19:27;;;;;;;2.63;2.40;;;19.40;99.90;;;;;;4995356;28;20498;-58
2023/07/16 00:21:55;;;;;;;3.13;2.83;;;19.30;99.90;;;;;;4998426;28;20593;-58
2023/07/16 00:24:24;;;;;;;2.67;2.47;;;19.30;99.90;;;;;;5000481;28;20476;-58
2023/07/16 00:26:53;;;;;;;3.50;2.83;;;19.20;99.90;;;;;;4996769;28;20564;-58
2023/07/16 00:29:21;;;;;;;3.50;3.10;;;19.20;99.90;;;;;;4999721;28;20472;-58
2023/07/16 00:31:49;;;;;;;3.00;2.70;;;19.10;99.90;;;;;;4998684;28;20585;-57
2023/07/16 00:34:17;;;;;;;2.93;2.40;;;19.10;99.90;;;;;;4996248;28;20590;-57
2023/07/16 00:36:45;;;;;;;2.67;2.47;;;19.20;99.90;;;;;;4995232;28;20864;-58
2023/07/16 00:39:13;;;;;;;2.70;2.50;;;19.20;99.90;;;;;;5000069;28;20943;-58
2023/07/16 00:41:43;;;;;;;3.00;2.70;;;19.20;99.90;;;;;;4996148;28;20496;-58
2023/07/16 00:44:11;;;;;;;4.50;2.63;;;19.10;99.90;;;;;;4999287;28;20580;-57
2023/07/16 00:46:39;;;;;;;2.97;2.67;;;19.10;99.90;;;;;;4999006;28;21140;-58
2023/07/16 00:49:07;;;;;;;4.40;2.33;;;19.10;99.90;;;;;;4997187;28;20845;-57
2023/07/16 00:51:35;;;;;;;2.50;2.30;;;19.00;99.90;;;;;;4996110;28;20494;-57
2023/07/16 00:54:04;;;;;;;2.80;2.60;;;19.00;99.90;;;;;;4998487;28;20599;-56
2023/07/16 00:56:32;;;;;;;2.47;2.27;;;19.00;99.90;;;;;;4997618;28;23943;-58
2023/07/16 00:59:02;;;;;;;3.10;2.37;;;19.10;99.90;;;;;;4995554;28;20467;-57
2023/07/16 01:01:30;;;;;;;3.20;2.63;;;19.00;99.90;;;;;;4997417;28;20495;-58
2023/07/16 01:03:58;;;;;;;2.63;2.37;;;19.00;99.90;;;;;;4991724;28;20492;-58
2023/07/16 01:06:32;;;;;;;3.40;2.70;;;18.90;99.90;;;;;;4995062;28;20507;-58
2023/07/16 01:09:07;;;;;;;4.03;3.07;;;18.90;99.90;;;;;;4990322;28;20473;-57
2023/07/16 01:11:36;;;;;;;2.53;2.33;;;18.90;99.90;;;;;;4996181;28;20533;-58
2023/07/16 01:14:07;;;;;;;2.60;2.40;;;18.90;99.90;;;;;;4998373;28;20496;-57
2023/07/16 01:16:36;;;;;;;2.80;2.60;;;18.90;99.90;;;;;;4997338;28;21049;-58
2023/07/16 01:19:05;;;;;;;2.80;2.40;;;18.90;99.90;;;;;;4993013;28;20985;-57
2023/07/16 01:21:43;;;;;;;3.30;2.67;;;18.90;99.90;;;;;;4997217;28;20480;-58
2023/07/16 01:24:34;;;;;;;2.60;2.40;;;18.90;99.90;;;;;;4997338;28;20496;-58
2023/07/16 01:27:23;;;;;;;3.07;2.77;;;18.90;99.90;;;;;;4995501;28;20584;-57
2023/07/16 01:29:54;;;;;;;3.87;3.00;;;18.80;99.90;;;;;;4998732;28;20476;-58
2023/07/16 01:32:22;;;;;;;2.90;2.70;;;18.80;99.90;;;;;;4994452;28;20955;-58
2023/07/16 01:34:53;;;;;;;3.10;2.90;;;18.90;99.90;;;;;;4997000;28;20554;-58
2023/07/16 01:37:21;;;;;;;3.77;2.80;;;18.80;99.90;;;;;;4994567;28;20566;-58
2023/07/16 01:39:49;;;;;;;3.00;2.80;;;18.80;99.90;;;;;;4996064;28;20551;-58
2023/07/16 01:42:17;;;;;;;3.73;3.30;;;18.80;99.90;;;;;;4995989;28;20506;-58
2023/07/16 01:44:45;;;;;;;2.90;2.60;;;18.90;99.90;;;;;;4995766;28;20990;-57
2023/07/16 01:47:31;;;;;;;6.40;3.37;;;18.90;99.90;;;;;;4997210;28;20616;-58
2023/07/16 01:49:59;;;;;;;2.90;2.70;;;18.90;99.90;;;;;;4996143;28;20473;-58
2023/07/16 01:52:27;;;;;;;3.07;2.60;;;18.90;99.90;;;;;;4998422;28;20503;-58
2023/07/16 01:54:55;;;;;;;3.03;2.73;;;18.80;99.90;;;;;;4994766;28;20554;-58
2023/07/16 01:57:23;;;;;;;3.53;3.10;;;18.90;99.90;;;;;;4996653;28;20551;-58
2023/07/16 01:59:51;;;;;;;2.80;2.60;;;18.80;99.90;;;;;;4991621;28;20515;-58
2023/07/16 02:02:20;;;;;;;3.20;2.77;;;18.70;99.90;;;;;;4998077;28;21033;-58
2023/07/16 02:04:48;;;;;;;3.07;2.70;;;18.70;99.90;;;;;;4997237;28;20496;-58
2023/07/16 02:07:16;;;;;;;2.70;2.50;;;18.70;99.90;;;;;;4996783;28;20554;-58
2023/07/16 02:09:44;;;;;;;3.40;3.10;;;18.70;99.90;;;;;;4996335;28;20475;-58
2023/07/16 02:12:12;;;;;;;3.93;2.77;;;18.70;99.90;;;;;;4994547;28;20578;-58
2023/07/16 02:14:40;;;;;;;3.20;2.90;;;18.70;99.90;;;;;;4995065;28;20583;-58
2023/07/16 02:17:08;;;;;;;3.40;2.87;;;18.70;99.90;;;;;;4996653;28;20798;-58
2023/07/16 02:19:37;;;;;;;3.43;2.70;;;18.70;99.90;;;;;;4997696;28;21073;-58
2023/07/16 02:22:05;;;;;;;2.87;2.67;;;18.70;99.90;;;;;;4992939;28;20481;-59
2023/07/16 02:24:33;;;;;;;2.90;2.70;;;18.70;99.90;;;;;;4998862;28;20578;-58
2023/07/16 02:27:01;;;;;;;5.30;2.97;;;18.60;99.90;;;;;;4996310;28;20537;-58
2023/07/16 02:29:29;;;;;;;3.50;2.80;;;18.60;99.90;;;;;;4995976;28;20476;-58
2023/07/16 02:31:57;;;;;;;3.73;3.10;;;18.60;99.90;;;;;;4996979;28;20492;-58
2023/07/16 02:34:25;;;;;;;3.60;2.50;;;18.50;99.90;;;;;;5000966;28;20572;-58
2023/07/16 02:36:55;;;;;;;2.67;2.47;;;18.50;99.90;;;;;;4998614;28;20615;-58
2023/07/16 02:39:23;;;;;;;3.10;2.67;;;18.60;99.90;;;;;;5000800;28;20473;-57
2023/07/16 02:41:51;;;;;;;3.57;2.90;;;18.60;99.90;;;;;;4998779;28;20569;-58
2023/07/16 02:44:19;;;;;;;2.70;2.50;;;18.50;99.90;;;;;;4996881;28;20949;-58
2023/07/16 02:46:46;;;;;;;4.60;2.70;;;18.50;99.90;;;;;;5002368;28;20555;-57
2023/07/16 02:49:14;;;;;;;2.63;2.43;;;18.40;99.90;;;;;;4997219;28;20465;-58
2023/07/16 02:51:42;;;;;;;3.83;2.87;;;18.50;99.90;;;;;;4997779;28;20578;-58
2023/07/16 02:54:12;;;;;;;4.53;2.90;;;18.40;99.90;;;;;;4998636;28;20579;-58
2023/07/16 02:56:40;;;;;;;4.70;2.50;;;18.40;99.90;;;;;;5001154;28;20562;-59
2023/07/16 02:59:08;;;;;;;3.07;2.40;;;18.40;99.90;;;;;;4995389;28;20470;-58
2023/07/16 03:01:36;;;;;;;4.43;2.63;;;18.40;99.90;;;;;;4996337;28;21015;-58
2023/07/16 03:04:04;;;;;;;3.70;2.90;;;18.40;99.90;;;;;;5001610;28;20495;-58
2023/07/16 03:06:32;;;;;;;4.07;2.80;;;18.40;99.90;;;;;;5001666;28;20836;-58
2023/07/16 03:09:00;;;;;;;2.90;2.40;;;18.50;99.90;;;;;;4999518;28;20501;-58
2023/07/16 03:11:30;;;;;;;2.80;2.60;;;18.50;99.90;;;;;;4998288;28;20511;-58
2023/07/16 03:13:58;;;;;;;2.77;2.57;;;18.40;99.90;;;;;;4995939;28;20603;-58
2023/07/16 03:16:25;;;;;;;3.20;2.90;;;18.40;99.90;;;;;;5000893;28;20495;-58
2023/07/16 03:18:54;;;;;;;2.80;2.50;;;18.40;99.90;;;;;;4997811;28;20530;-59
2023/07/16 03:21:22;;;;;;;2.73;2.53;;;18.40;99.90;;;;;;4996030;28;20522;-60
2023/07/16 03:23:50;;;;;;;3.63;3.37;;;18.40;99.90;;;;;;5000970;28;20497;-58
2023/07/16 03:26:18;;;;;;;3.70;3.00;;;18.40;99.90;;;;;;5000902;28;20905;-58
2023/07/16 03:28:47;;;;;;;2.83;2.63;;;18.40;99.90;;;;;;4999519;28;20471;-59
2023/07/16 03:31:15;;;;;;;3.30;2.87;;;18.40;99.90;;;;;;4998497;28;21082;-59
2023/07/16 03:33:43;;;;;;;2.83;2.63;;;18.40;99.90;;;;;;5000974;28;20578;-58
2023/07/16 03:36:11;;;;;;;3.20;3.00;;;18.40;99.90;;;;;;4997018;28;20532;-57
2023/07/16 03:38:39;;;;;;;4.00;3.03;;;18.40;99.90;;;;;;4998788;28;20464;-59
2023/07/16 03:41:07;;;;;;;3.20;2.90;;;18.40;99.90;;;;;;4996898;28;20480;-58
2023/07/16 03:43:35;;;;;;;3.10;2.80;;;18.40;99.90;;;;;;5000418;28;20532;-59
2023/07/16 03:46:07;;;;;;;3.00;2.70;;;18.40;99.90;;;;;;4999527;28;20994;-58
2023/07/16 03:48:35;;;;;;;3.50;2.80;;;18.40;99.90;;;;;;5000933;28;20480;-59
2023/07/16 03:51:03;;;;;;;3.40;2.93;;;18.40;99.90;;;;;;5001453;28;20505;-58
2023/07/16 03:53:31;;;;;;;4.13;2.83;;;18.40;99.90;;;;;;5000730;28;20575;-58
2023/07/16 03:55:59;;;;;;;4.73;2.80;;;18.40;99.90;;;;;;5002034;28;20575;-57
2023/07/16 03:58:29;;;;;;;3.83;2.67;;;18.30;99.90;;;;;;4997805;28;20559;-58
2023/07/16 04:00:57;;;;;;;3.00;2.70;;;18.30;99.90;;;;;;4996022;28;20583;-58
2023/07/16 04:03:26;;;;;;;3.10;2.73;;;18.30;99.90;;;;;;5001420;28;20527;-58
2023/07/16 04:06:02;;;;;;;3.17;2.90;;;18.30;99.90;;;;;;5000611;28;20476;-59
2023/07/16 04:08:30;;;;;;;3.60;2.77;;;18.30;99.90;;;;;;5002290;28;20902;-59
2023/07/16 04:10:59;;;;;;;3.20;2.90;;;18.30;99.90;;;;;;4998706;28;20559;-59
2023/07/16 04:13:27;;;;;;;6.43;3.50;;;18.30;99.90;;;;;;4999421;28;20528;-59
2023/07/16 04:15:57;;;;;;;3.10;2.80;;;18.30;99.90;;;;;;4999705;28;20595;-59
2023/07/16 04:18:26;;;;;;;3.80;3.50;;;18.30;99.90;;;;;;4996626;28;20521;-59
2023/07/16 04:20:54;;;;;;;3.97;3.30;;;18.30;99.90;;;;;;4998151;28;20555;-59
2023/07/16 04:23:23;;;;;;;4.00;3.23;;;18.30;99.90;;;;;;4999327;28;20499;-59
2023/07/16 04:25:53;;;;;;;3.23;2.97;;;18.30;99.90;;;;;;4998045;28;20492;-59
2023/07/16 04:28:22;;;;;;;3.67;3.10;;;18.40;99.90;;;;;;4995023;28;20475;-58
2023/07/16 04:30:50;;;;;;;5.63;3.10;;;18.30;99.90;;;;;;4997187;28;21272;-59
2023/07/16 04:33:19;;;;;;;3.60;3.30;;;18.40;99.90;;;;;;4995666;28;20586;-59
2023/07/16 04:35:48;;;;;;;4.00;2.77;;;18.30;99.90;;;;;;4997362;28;20674;-59
2023/07/16 04:38:16;;;;;;;3.17;2.87;;;18.40;99.90;;;;;;4998325;28;20579;-59
2023/07/16 04:40:44;;;;;;;5.80;2.60;;;18.40;99.90;;;;;;4997105;28;21189;-59
2023/07/16 04:43:12;;;;;;;3.07;2.70;;;18.40;99.90;;;;;;4999545;28;20479;-58
2023/07/16 04:45:40;;;;;;;5.80;2.90;;;18.40;99.90;;;;;;4998867;28;21528;-60
2023/07/16 04:48:08;;;;;;;3.50;2.80;;;18.40;99.90;;;;;;4996238;28;20503;-60
2023/07/16 04:50:36;;;;;;;3.33;2.67;;;18.50;99.90;;;;;;4995150;28;20920;-59
2023/07/16 04:53:05;;;;;;;3.00;2.50;;;18.60;99.90;;;;;;4993246;28;21031;-59
2023/07/16 04:55:36;;;;;;;3.53;2.50;;;18.60;99.90;;;;;;4997123;28;20468;-59
2023/07/16 04:58:04;;;;;;;4.67;2.50;;;18.70;99.90;;;;;;5001181;28;20606;-59
2023/07/16 05:00:33;;;;;;;3.17;2.70;;;18.70;99.90;;;;;;4997378;28;21049;-60
2023/07/16 05:03:01;;;;;;;3.80;2.37;;;18.80;99.90;;;;;;4997645;28;20592;-60
2023/07/16 05:05:29;;;;;;;4.93;2.57;;;18.80;99.90;;;;;;4998892;28;20480;-60
2023/07/16 05:07:57;;;;;;;2.80;2.40;;;18.90;99.90;;;;;;4994551;28;20472;-60
2023/07/16 05:10:28;;;;;;;3.70;2.77;;;18.90;99.90;;;;;;4995998;28;21007;-60
2023/07/16 05:12:56;;;;;;;4.93;2.73;;;19.00;99.90;;;;;;4997931;28;20559;-60
2023/07/16 05:15:24;;;;;;;3.10;2.30;;;19.00;99.90;;;;;;4998571;28;20579;-60
2023/07/16 05:17:52;;;;;;;3.67;2.77;;;19.10;99.90;;;;;;4995118;28;21048;-60
2023/07/16 05:20:20;;;;;;;2.50;2.30;;;19.10;99.90;;;;;;4999501;28;20472;-60
2023/07/16 05:22:48;;;;;;;2.70;2.50;;;19.20;99.90;;;;;;4996276;28;20483;-59
2023/07/16 05:25:16;;;;;;;3.50;2.53;;;19.20;99.90;;;;;;4998159;28;20492;-60
2023/07/16 05:27:45;;;;;;;3.30;2.93;;;19.20;99.90;;;;;;4994019;28;20497;-59
2023/07/16 05:30:14;;;;;;;3.17;2.83;;;19.20;99.90;;;;;;4998900;28;20477;-56
2023/07/16 05:32:42;;;;;;;4.57;2.50;;;19.20;99.90;;;;;;5001002;28;20540;-60
2023/07/16 05:35:10;;;;;;;4.07;2.63;;;19.20;99.90;;;;;;4995736;28;20496;-57
2023/07/16 05:37:38;;;;;;;3.03;2.70;;;19.20;99.90;;;;;;4994642;28;21573;-60
2023/07/16 05:40:08;;;;;;;3.30;2.60;;;19.30;99.90;;;;;;4997798;28;21144;-58
2023/07/16 05:42:36;;;;;;;3.50;3.00;;;19.30;99.90;;;;;;4993589;28;20492;-59
2023/07/16 05:45:07;;;;;;;4.83;3.57;;;19.30;99.90;;;;;;4993067;28;20924;-58
2023/07/16 05:47:35;;;;;;;3.23;2.50;;;19.40;99.90;;;;;;4996523;28;20508;-58
2023/07/16 05:50:03;;;;;;;3.20;2.90;;;19.30;99.90;;;;;;4996760;28;20527;-59
2023/07/16 05:52:31;;;;;;;5.93;3.20;;;19.40;99.90;;;;;;4993842;28;20512;-58
2023/07/16 05:54:59;;;;;;;5.00;2.57;;;19.40;99.90;;;;;;4995309;28;20495;-57
2023/07/16 05:57:27;;;;;;;3.70;2.37;;;19.50;99.90;;;;;;4995911;28;20528;-58
2023/07/16 05:59:55;;;;;;;5.53;2.90;;;19.50;99.90;;;;;;4998395;28;21032;-59
2023/07/16 06:02:25;;;;;;;3.80;2.23;;;19.60;99.90;;;;;;4999105;28;20479;-59
2023/07/16 06:04:53;;;;;;;3.83;2.60;;;19.60;99.90;;;;;;4996251;28;20524;-59
2023/07/16 06:07:21;;;;;;;3.60;2.60;;;19.60;99.90;;;;;;4991248;28;20464;-58
2023/07/16 06:09:49;;;;;;;4.10;2.50;;;19.70;99.90;;;;;;4997178;28;20559;-58
2023/07/16 06:12:17;;;;;;;3.00;2.30;;;19.70;99.90;;;;;;4998062;28;20491;-58
2023/07/16 06:14:45;;;;;;;5.03;2.67;;;19.70;99.90;;;;;;4995755;28;20595;-59
2023/07/16 06:17:13;;;;;;;5.70;2.83;;;19.80;99.90;;;;;;4998417;28;20591;-58
2023/07/16 06:19:42;;;;;;;3.70;2.30;;;19.80;99.90;;;;;;4998870;28;20504;-59
2023/07/16 06:22:10;;;;;;;3.33;2.50;;;19.90;99.90;;;;;;4997484;28;20487;-58
2023/07/16 06:24:38;;;;;;;6.30;2.40;;;19.90;99.90;;;;;;4996444;28;20496;-58
2023/07/16 06:27:06;;;;;;;3.00;2.80;;;19.90;99.90;;;;;;4997639;28;20550;-58
2023/07/16 06:29:34;;;;;;;3.20;2.77;;;20.00;99.90;;;;;;4998400;28;20491;-58
2023/07/16 06:32:03;;;;;;;3.03;2.20;;;19.90;99.90;;;;;;4990434;28;20490;-58
2023/07/16 06:34:31;;;;;;;3.10;2.43;;;20.00;99.90;;;;;;4999381;28;20496;-60
2023/07/16 06:37:00;;;;;;;3.27;2.43;;;20.00;99.90;;;;;;5001176;28;20554;-60
2023/07/16 06:39:28;;;;;;;6.10;2.80;;;20.10;99.90;;;;;;4996973;28;21014;-60
2023/07/16 06:41:56;;;;;;;2.60;2.40;;;20.10;99.90;;;;;;4994277;28;20598;-60
2023/07/16 06:44:24;;;;;;;4.13;2.93;;;20.20;99.90;;;;;;5003116;28;20579;-60
2023/07/16 06:46:52;;;;;;;3.47;3.13;;;20.30;99.90;;;;;;4996228;28;20476;-60
2023/07/16 06:49:20;;;;;;;5.70;3.60;;;20.30;99.90;;;;;;5002024;28;20508;-60
2023/07/16 06:51:48;;;;;;;6.27;3.27;;;20.40;99.90;;;;;;5000062;28;20552;-60
2023/07/16 06:54:18;;;;;;;4.30;3.20;;;20.40;99.90;;;;;;5001745;28;20578;-60
2023/07/16 06:56:46;;;;;;;4.23;3.30;;;20.30;99.90;;;;;;4994938;28;20591;-61
2023/07/16 06:59:14;;;;;;;5.63;3.23;;;20.30;99.90;;;;;;4984262;28;20496;-60
2023/07/16 07:01:42;;;;;;;7.27;3.17;;;20.40;99.90;;;;;;4988872;28;20495;-60
2023/07/16 07:04:10;;;;;;;4.50;2.70;;;20.40;99.90;;;;;;4978698;28;20586;-59
2023/07/16 07:06:38;;;;;;;4.10;3.20;;;20.40;99.90;;;;;;4991169;28;20530;-59
2023/07/16 07:09:06;;;;;;;4.30;3.40;;;20.50;99.90;;;;;;4989617;28;20571;-58
2023/07/16 07:11:35;;;;;;;4.87;3.00;;;20.50;99.90;;;;;;4995632;28;20480;-58
2023/07/16 07:14:03;;;;;;;4.93;2.77;;;20.50;99.90;;;;;;4998703;28;20579;-59
2023/07/16 07:16:31;;;;;;;4.67;3.27;;;20.50;99.90;;;;;;4993827;28;21133;-58
2023/07/16 07:18:59;;;;;;;3.70;3.30;;;20.50;99.90;;;;;;5000152;28;21091;-58
2023/07/16 07:21:27;;;;;;;5.30;3.03;;;20.50;99.90;;;;;;4989077;28;20491;-59
2023/07/16 07:23:55;;;;;;;3.67;3.10;;;20.50;99.90;;;;;;4994293;28;20547;-59
2023/07/16 07:26:23;;;;;;;3.50;3.20;;;20.50;99.90;;;;;;4997376;28;20551;-59
2023/07/16 07:28:53;;;;;;;3.73;3.33;;;20.50;99.90;;;;;;5000058;28;20468;-59
2023/07/16 07:31:21;;;;;;;7.57;3.27;;;20.60;99.90;;;;;;4996835;28;20550;-58
2023/07/16 07:33:49;;;;;;;6.37;3.07;;;20.70;99.90;;;;;;5001339;28;20492;-58
2023/07/16 07:36:17;;;;;;;4.73;3.43;;;20.80;99.90;;;;;;5002006;28;20473;-58
2023/07/16 07:38:45;;;;;;;4.07;3.10;;;20.90;99.90;;;;;;5000493;28;20493;-57
2023/07/16 07:41:13;;;;;;;9.17;3.20;;;20.80;99.90;;;;;;4994819;28;21127;-59
2023/07/16 07:43:41;;;;;;;4.60;3.53;;;20.80;99.90;;;;;;4991939;28;21099;-59
2023/07/16 07:46:11;;;;;;;3.73;3.20;;;20.80;99.90;;;;;;4991936;28;20575;-59
2023/07/16 07:48:39;;;;;;;4.73;3.10;;;20.90;99.90;;;;;;5001074;28;20471;-59
2023/07/16 07:51:07;;;;;;;3.37;3.07;;;20.90;99.90;;;;;;5000849;28;20559;-59
2023/07/16 07:53:35;;;;;;;3.53;2.80;;;20.90;99.90;;;;;;4990913;28;20912;-58
2023/07/16 07:56:03;;;;;;;2.97;2.70;;;20.90;99.90;;;;;;4998412;28;20571;-58
2023/07/16 07:58:31;;;;;;;4.07;3.00;;;21.00;99.90;;;;;;4997758;28;20489;-58
2023/07/16 08:01:05;;;;;;;4.10;2.60;;;21.00;99.90;;;;;;4998906;28;20487;-59
2023/07/16 08:03:34;;;;;;;4.30;2.90;;;21.10;99.90;;;;;;5000367;28;20578;-60
2023/07/16 08:06:02;;;;;;;4.70;3.30;;;21.20;99.90;;;;;;4997348;28;20473;-59
2023/07/16 08:08:30;;;;;;;4.83;2.93;;;21.30;99.90;;;;;;4995944;28;20496;-59
2023/07/16 08:10:58;;;;;;;5.47;3.27;;;21.30;99.90;;;;;;4996484;28;20588;-59
2023/07/16 08:13:27;;;;;;;4.70;3.00;;;21.40;99.90;;;;;;4997548;28;20491;-58
2023/07/16 08:15:55;;;;;;;5.63;3.10;;;21.50;99.90;;;;;;5000170;28;20468;-58
2023/07/16 08:18:22;;;;;;;3.63;2.87;;;21.60;99.90;;;;;;4999327;28;20583;-59
2023/07/16 08:20:52;;;;;;;3.03;2.80;;;21.60;99.90;;;;;;4996531;28;20905;-59
2023/07/16 08:23:20;;;;;;;4.53;2.97;;;21.50;99.90;;;;;;4997880;28;20551;-58
2023/07/16 08:25:51;;;;;;;3.67;3.10;;;21.50;99.90;;;;;;4994913;28;20914;-58
2023/07/16 08:28:19;;;;;;;7.30;3.30;;;21.40;99.90;;;;;;4996425;28;20469;-58
2023/07/16 08:30:48;;;;;;;6.30;3.27;;;21.40;99.90;;;;;;4994163;28;21107;-59
2023/07/16 08:33:16;;;;;;;5.57;2.90;;;21.40;99.90;;;;;;4998710;28;20887;-59
2023/07/16 08:35:44;;;;;;;4.57;3.00;;;21.40;99.90;;;;;;4999191;28;20526;-58
2023/07/16 08:38:14;;;;;;;4.30;2.93;;;21.50;99.90;;;;;;4994942;28;20472;-58
2023/07/16 08:40:42;;;;;;;3.50;2.83;;;21.50;99.90;;;;;;4998942;28;20910;-58
2023/07/16 08:43:10;;;;;;;4.90;3.03;;;21.60;99.90;;;;;;4960142;28;1135628;-58
2023/07/16 08:45:42;;;;;;;3.10;2.80;;;21.60;99.90;;;;;;4993587;28;20221;-58
2023/07/16 08:48:10;;;;;;;5.33;3.40;;;21.70;99.90;;;;;;4996998;28;20561;-58
2023/07/16 08:50:39;;;;;;;4.33;3.67;;;21.70;99.90;;;;;;5001042;28;20461;-59
2023/07/16 08:53:08;;;;;;;5.00;3.50;;;21.80;99.90;;;;;;4983899;28;21147;-58
2023/07/16 08:55:38;;;;;;;4.87;3.40;;;21.70;99.90;;;;;;4988581;28;20469;-64
2023/07/16 08:58:06;;;;;;;4.73;4.03;;;21.70;99.90;;;;;;4988175;28;20472;-61
2023/07/16 09:00:35;;;;;;;4.97;4.07;;;21.70;99.90;;;;;;4994386;28;20557;-60
2023/07/16 09:03:03;;;;;;;7.33;4.40;;;21.70;99.90;;;;;;4998709;28;20495;-60
2023/07/16 09:05:31;;;;;;;5.23;4.73;;;21.80;99.90;;;;;;5000920;28;20497;-60
2023/07/16 09:08:07;;;;;;;5.17;4.67;;;21.80;99.90;;;;;;4989517;28;20479;-61
2023/07/16 09:10:36;;;;;;;4.80;4.30;;;21.90;99.90;;;;;;4992088;28;20964;-59
2023/07/16 09:13:04;;;;;;;5.67;5.17;;;22.00;99.90;;;;;;4997845;28;20497;-61
2023/07/16 09:15:33;;;;;;;5.03;4.63;;;21.90;99.90;;;;;;4995041;28;20551;-60
2023/07/16 09:18:02;;;;;;;5.30;4.77;;;22.00;99.90;;;;;;4990822;28;20550;-61
2023/07/16 09:20:31;;;;;;;7.67;5.70;;;22.00;99.90;;;;;;4990212;28;20496;-61
2023/07/16 09:22:59;;;;;;;7.47;5.60;;;21.90;99.90;;;;;;4994473;28;20492;-59
2023/07/16 09:25:28;;;;;;;5.80;5.20;;;21.90;99.90;;;;;;4991755;28;20476;-61
2023/07/16 09:28:02;;;;;;;6.17;5.70;;;22.00;99.90;;;;;;4996736;28;20645;-61
2023/07/16 09:30:32;;;;;;;4.93;4.60;;;22.10;99.90;;;;;;4987971;28;20606;-61
2023/07/16 09:33:11;;;;;;;9.33;4.87;;;22.20;99.90;;;;;;4989503;28;20488;-59
2023/07/16 09:35:39;;;;;;;6.23;5.60;;;22.20;99.90;;;;;;4988890;28;20475;-60
2023/07/16 09:38:09;;;;;;;6.57;5.33;;;22.30;99.90;;;;;;4994593;28;22455;-61
2023/07/16 09:40:38;;;;;;;6.00;5.07;;;22.20;99.90;;;;;;4995528;28;20498;-60
2023/07/16 09:43:08;;;;;;;8.00;5.27;;;22.20;99.90;;;;;;4985141;28;20492;-58
2023/07/16 09:45:36;;;;;;;5.33;4.70;;;22.20;99.90;;;;;;4992676;28;20469;-59
2023/07/16 09:48:05;;;;;;;4.70;4.30;;;22.40;99.90;;;;;;4992359;28;21087;-61
2023/07/16 09:50:34;;;;;;;6.10;5.10;;;22.40;99.90;;;;;;4987624;28;20496;-61
2023/07/16 09:53:04;;;;;;;4.63;4.30;;;22.50;99.90;;;;;;4987400;28;21017;-61
2023/07/16 09:55:35;;;;;;;5.17;4.67;;;22.60;99.90;;;;;;4985587;28;20597;-60
2023/07/16 09:58:07;;;;;;;4.90;4.50;;;22.70;99.90;;;;;;4995206;28;20468;-60
2023/07/16 10:00:38;;;;;;;11.40;5.63;;;22.60;99.90;;;;;;4992649;28;20493;-61
2023/07/16 10:03:09;;;;;;;5.63;4.90;;;22.50;99.90;;;;;;4988678;28;20582;-60
2023/07/16 10:05:38;;;;;;;7.73;5.13;;;22.50;99.90;;;;;;4989103;28;20477;-60
2023/07/16 10:08:15;;;;;;;8.83;5.50;;;22.50;99.90;;;;;;4992436;28;21148;-60
2023/07/16 10:10:48;;;;;;;7.77;4.57;;;22.50;99.90;;;;;;4992356;28;20534;-60
2023/07/16 10:13:17;;;;;;;5.00;4.10;;;22.50;99.90;;;;;;4993538;28;20472;-60
2023/07/16 10:15:56;;;;;;;5.13;4.27;;;22.50;99.90;;;;;;4995439;28;20785;-59
2023/07/16 10:18:30;;;;;;;4.20;3.77;;;22.50;99.90;;;;;;4988913;28;20472;-60
2023/07/16 10:21:05;;;;;;;5.17;4.23;;;22.60;99.90;;;;;;4994991;28;20527;-60
2023/07/16 10:23:41;;;;;;;5.00;4.27;;;22.70;99.90;;;;;;4992828;28;20491;-60
2023/07/16 10:26:10;;;;;;;5.30;4.03;;;22.80;99.90;;;;;;4989763;28;20512;-60
2023/07/16 10:28:41;;;;;;;5.73;3.97;;;22.80;99.90;;;;;;4992724;28;20475;-60
2023/07/16 10:31:22;;;;;;;4.93;4.10;;;22.80;99.90;;;;;;4986050;28;20779;-60
2023/07/16 10:34:00;;;;;;;4.10;3.37;;;22.80;99.90;;;;;;4995762;28;20496;-60
2023/07/16 10:36:28;;;;;;;3.93;3.60;;;22.80;99.90;;;;;;4992683;28;20512;-60
2023/07/16 10:39:03;;;;;;;3.77;3.20;;;22.80;99.90;;;;;;4981114;28;21117;-59
2023/07/16 10:41:32;;;;;;;4.47;3.70;;;22.80;99.90;;;;;;4994119;28;20496;-60
2023/07/16 10:44:01;;;;;;;4.73;4.30;;;22.90;99.90;;;;;;4991580;28;20587;-60
2023/07/16 10:46:32;;;;;;;4.90;3.50;;;23.00;99.90;;;;;;4988600;28;20975;-60
2023/07/16 10:49:00;;;;;;;4.10;3.70;;;23.20;99.90;;;;;;4979711;28;20911;-61
2023/07/16 10:51:28;;;;;;;4.07;3.57;;;23.40;99.90;;;;;;4991459;28;20491;-61
2023/07/16 10:53:57;;;;;;;6.07;4.10;;;23.50;99.90;;;;;;4992788;28;20492;-61
2023/07/16 10:56:25;;;;;;;4.27;3.80;;;23.50;99.90;;;;;;5000047;28;20477;-61
2023/07/16 10:58:53;;;;;;;4.50;3.17;;;23.40;99.90;;;;;;4996129;28;20487;-61
2023/07/16 11:01:21;;;;;;;5.00;3.40;;;23.30;99.90;;;;;;4995550;28;20491;-61
2023/07/16 11:03:51;;;;;;;4.70;3.80;;;23.30;99.90;;;;;;4996552;28;20521;-61
2023/07/16 11:06:19;;;;;;;5.13;3.50;;;23.40;99.90;;;;;;4995240;28;20480;-61
2023/07/16 11:08:48;;;;;;;4.67;3.60;;;23.50;99.90;;;;;;4995070;28;21004;-61
2023/07/16 11:11:16;;;;;;;4.83;3.87;;;23.50;99.90;;;;;;4995395;28;20570;-61
2023/07/16 11:13:44;;;;;;;6.53;3.57;;;23.60;99.90;;;;;;4993831;28;21365;-61
2023/07/16 11:16:17;;;;;;;5.60;4.00;;;23.60;99.90;;;;;;4994789;28;20629;-61
2023/07/16 11:18:45;;;;;;;4.30;3.90;;;23.50;99.90;;;;;;4992729;28;20484;-60
2023/07/16 11:21:19;;;;;;;5.27;3.73;;;23.50;99.90;;;;;;4994545;28;20539;-60
2023/07/16 11:23:47;;;;;;;3.87;3.40;;;23.50;99.90;;;;;;4996283;28;20824;-61
2023/07/16 11:26:16;;;;;;;3.70;3.43;;;23.50;99.90;;;;;;4992596;28;20499;-61
2023/07/16 11:28:44;;;;;;;5.50;3.70;;;23.60;99.90;;;;;;4983158;28;20479;-60
2023/07/16 11:31:14;;;;;;;4.60;3.70;;;23.60;99.90;;;;;;4988357;28;20918;-60
2023/07/16 11:33:44;;;;;;;4.53;3.60;;;23.80;99.90;;;;;;4997517;28;20492;-60
2023/07/16 11:36:12;;;;;;;3.50;3.20;;;24.00;99.90;;;;;;4992332;28;20473;-59
2023/07/16 11:38:42;;;;;;;4.17;3.77;;;24.10;99.90;;;;;;4996952;28;21224;-60
2023/07/16 11:41:10;;;;;;;5.70;4.23;;;24.20;99.90;;;;;;4994916;28;20602;-60
2023/07/16 11:43:41;;;;;;;3.80;3.40;;;24.30;99.90;;;;;;4988973;28;20584;-60
2023/07/16 11:46:17;;;;;;;4.03;3.40;;;24.30;99.90;;;;;;4991239;28;22190;-60
2023/07/16 11:48:46;;;;;;;7.93;3.50;;;24.20;99.90;;;;;;4980545;28;20649;-66
2023/07/16 11:51:14;;;;;;;3.20;2.90;;;24.30;99.90;;;;;;4993622;28;20499;-66
2023/07/16 11:53:44;;;;;;;7.33;3.77;;;24.30;99.90;;;;;;4989892;28;20989;-62
2023/07/16 11:56:11;;;;;;;4.03;3.73;;;24.40;99.90;;;;;;4985669;28;20473;-61
2023/07/16 11:58:39;;;;;;;3.70;3.40;;;24.40;99.90;;;;;;4988187;28;20484;-59
2023/07/16 12:01:07;;;;;;;5.57;3.63;;;24.40;99.90;;;;;;4993438;28;20483;-59
2023/07/16 12:03:35;;;;;;;4.03;3.63;;;24.40;99.90;;;;;;4986389;28;20543;-60
2023/07/16 12:06:04;;;;;;;3.90;3.30;;;24.50;99.90;;;;;;4990897;28;20480;-60
2023/07/16 12:08:31;;;;;;;3.50;3.20;;;24.40;99.90;;;;;;4992252;28;20480;-59
2023/07/16 12:11:01;;;;;;;4.13;3.73;;;24.60;99.90;;;;;;4987015;28;22709;-60
2023/07/16 12:13:30;;;;;;;4.40;4.00;;;24.80;99.90;;;;;;4994508;28;20497;-57
2023/07/16 12:15:58;;;;;;;4.10;3.80;;;24.80;99.90;;;;;;4995512;28;20499;-68
2023/07/16 12:18:26;;;;;;;3.53;3.23;;;24.60;99.90;;;;;;4992960;28;20476;-58
2023/07/16 12:20:54;;;;;;;4.20;3.80;;;24.50;99.90;;;;;;4989978;28;20601;-58
2023/07/16 12:23:22;;;;;;;4.07;3.67;;;24.40;99.90;;;;;;4991765;28;20580;-57
2023/07/16 12:25:51;;;;;;;6.50;3.90;;;24.30;99.90;;;;;;4992993;28;20472;-57
2023/07/16 12:28:20;;;;;;;4.73;3.10;;;24.40;99.90;;;;;;4994657;28;20915;-58
2023/07/16 12:30:48;;;;;;;3.80;3.50;;;24.40;99.90;;;;;;4994527;28;20476;-60
2023/07/16 12:33:16;;;;;;;3.90;3.50;;;24.40;99.90;;;;;;4994963;28;20476;-58
2023/07/16 12:35:45;;;;;;;3.93;3.43;;;24.50;99.90;;;;;;4995327;28;21056;-58
2023/07/16 12:38:13;;;;;;;5.17;3.10;;;24.50;99.90;;;;;;4993255;28;20845;-57
2023/07/16 12:40:41;;;;;;;4.00;3.23;;;24.70;99.90;;;;;;4988862;28;20574;-56
2023/07/16 12:43:09;;;;;;;5.80;3.27;;;24.80;99.90;;;;;;4994024;28;20973;-58
2023/07/16 12:45:38;;;;;;;5.13;3.40;;;24.90;99.90;;;;;;4998044;28;20962;-58
2023/07/16 12:48:07;;;;;;;4.77;3.40;;;24.90;99.90;;;;;;4993694;28;20603;-57
2023/07/16 12:50:35;;;;;;;3.37;3.07;;;24.90;99.90;;;;;;4991688;28;20492;-58
2023/07/16 12:53:04;;;;;;;4.70;3.83;;;25.00;99.90;;;;;;4997376;28;20491;-58
2023/07/16 12:55:33;;;;;;;3.67;3.30;;;25.00;99.90;;;;;;4995413;28;20472;-57